sensor_id;sensor_type;location;lat;lon;timestamp;pressure;altitude;pressure_sealevel;temperature;humidity
59650;BME280;46162;57.568;25.814;2023-12-04T00:00:17;100604.28;;;-12.33;100.00
59650;BME280;46162;57.568;25.814;2023-12-04T00:02:48;100605.97;;;-12.29;100.00
59650;BME280;46162;57.568;25.814;2023-12-04T00:05:17;100611.03;;;-12.10;100.00
59650;BME280;46162;57.568;25.814;2023-12-04T00:07:46;100608.59;;;-12.30;100.00
59650;BME280;46162;57.568;25.814;2023-12-04T00:10:14;100614.81;;;-12.53;100.00
59650;BME280;46162;57.568;25.814;2023-12-04T00:12:43;100606.94;;;-12.41;100.00
59650;BME280;46162;57.568;25.814;2023-12-04T00:15:12;100620.06;;;-12.65;100.00
59650;BME280;46162;57.568;25.814;2023-12-04T00:17:41;100608.66;;;-12.44;100.00
59650;BME280;46162;57.568;25.814;2023-12-04T00:20:11;100614.03;;;-12.73;100.00
59650;BME280;46162;57.568;25.814;2023-12-04T00:22:40;100609.56;;;-12.47;100.00
59650;BME280;46162;57.568;25.814;2023-12-04T00:25:09;100608.72;;;-12.52;100.00
59650;BME280;46162;57.568;25.814;2023-12-04T00:27:38;100602.69;;;-12.57;100.00
59650;BME280;46162;57.568;25.814;2023-12-04T00:30:07;100610.50;;;-12.62;100.00
59650;BME280;46162;57.568;25.814;2023-12-04T00:32:36;100612.16;;;-12.47;100.00
59650;BME280;46162;57.568;25.814;2023-12-04T00:35:05;100607.88;;;-12.52;100.00
59650;BME280;46162;57.568;25.814;2023-12-04T00:37:36;100607.38;;;-13.33;100.00
59650;BME280;46162;57.568;25.814;2023-12-04T00:40:06;100616.13;;;-14.00;100.00
59650;BME280;46162;57.568;25.814;2023-12-04T00:42:35;100611.81;;;-14.28;100.00
59650;BME280;46162;57.568;25.814;2023-12-04T00:45:05;100605.75;;;-14.17;100.00
59650;BME280;46162;57.568;25.814;2023-12-04T00:47:37;100610.97;;;-14.09;100.00
59650;BME280;46162;57.568;25.814;2023-12-04T00:50:06;100607.50;;;-13.94;100.00
59650;BME280;46162;57.568;25.814;2023-12-04T00:52:36;100605.72;;;-13.80;100.00
59650;BME280;46162;57.568;25.814;2023-12-04T00:55:06;100598.78;;;-13.56;100.00
59650;BME280;46162;57.568;25.814;2023-12-04T00:57:34;100610.03;;;-13.54;100.00
59650;BME280;46162;57.568;25.814;2023-12-04T01:00:04;100613.56;;;-13.97;100.00
59650;BME280;46162;57.568;25.814;2023-12-04T01:02:33;100616.09;;;-14.29;100.00
59650;BME280;46162;57.568;25.814;2023-12-04T01:05:03;100623.03;;;-14.43;100.00
59650;BME280;46162;57.568;25.814;2023-12-04T01:07:31;100610.06;;;-14.22;100.00
59650;BME280;46162;57.568;25.814;2023-12-04T01:10:03;100602.28;;;-13.96;100.00
59650;BME280;46162;57.568;25.814;2023-12-04T01:12:32;100605.75;;;-13.83;100.00
59650;BME280;46162;57.568;25.814;2023-12-04T01:15:01;100616.97;;;-13.82;100.00
59650;BME280;46162;57.568;25.814;2023-12-04T01:17:30;100609.22;;;-14.05;100.00
59650;BME280;46162;57.568;25.814;2023-12-04T01:19:59;100609.19;;;-13.90;100.00
59650;BME280;46162;57.568;25.814;2023-12-04T01:22:27;100604.00;;;-13.81;100.00
59650;BME280;46162;57.568;25.814;2023-12-04T01:24:56;100612.66;;;-14.13;100.00
59650;BME280;46162;57.568;25.814;2023-12-04T01:27:26;100621.28;;;-14.57;100.00
59650;BME280;46162;57.568;25.814;2023-12-04T01:29:56;100610.91;;;-14.66;100.00
59650;BME280;46162;57.568;25.814;2023-12-04T01:32:24;100613.50;;;-14.51;100.00
59650;BME280;46162;57.568;25.814;2023-12-04T01:34:53;100613.47;;;-14.72;100.00
59650;BME280;46162;57.568;25.814;2023-12-04T01:37:22;100609.16;;;-14.70;100.00
59650;BME280;46162;57.568;25.814;2023-12-04T01:39:51;100605.47;;;-15.33;100.00
59650;BME280;46162;57.568;25.814;2023-12-04T01:42:19;100598.38;;;-15.68;100.00
59650;BME280;46162;57.568;25.814;2023-12-04T01:44:50;100603.53;;;-15.68;100.00
59650;BME280;46162;57.568;25.814;2023-12-04T01:47:19;100609.00;;;-15.18;100.00
59650;BME280;46162;57.568;25.814;2023-12-04T01:49:48;100599.56;;;-15.02;100.00
59650;BME280;46162;57.568;25.814;2023-12-04T01:52:17;100585.66;;;-15.27;100.00
59650;BME280;46162;57.568;25.814;2023-12-04T01:54:45;100586.44;;;-15.42;100.00
59650;BME280;46162;57.568;25.814;2023-12-04T01:57:15;100582.06;;;-15.53;100.00
59650;BME280;46162;57.568;25.814;2023-12-04T01:59:44;100585.59;;;-15.39;100.00
59650;BME280;46162;57.568;25.814;2023-12-04T02:02:15;100589.91;;;-15.36;100.00
59650;BME280;46162;57.568;25.814;2023-12-04T02:04:44;100585.75;;;-15.01;100.00
59650;BME280;46162;57.568;25.814;2023-12-04T02:07:13;100582.38;;;-14.78;100.00
59650;BME280;46162;57.568;25.814;2023-12-04T02:09:42;100587.59;;;-14.46;100.00
59650;BME280;46162;57.568;25.814;2023-12-04T02:12:11;100581.50;;;-14.46;100.00
59650;BME280;46162;57.568;25.814;2023-12-04T02:14:39;100585.81;;;-14.52;100.00
59650;BME280;46162;57.568;25.814;2023-12-04T02:17:08;100578.06;;;-14.42;100.00
59650;BME280;46162;57.568;25.814;2023-12-04T02:19:40;100579.81;;;-14.32;100.00
59650;BME280;46162;57.568;25.814;2023-12-04T02:22:08;100574.63;;;-14.24;100.00
59650;BME280;46162;57.568;25.814;2023-12-04T02:24:39;100575.47;;;-14.07;100.00
59650;BME280;46162;57.568;25.814;2023-12-04T02:27:12;100566.84;;;-13.97;100.00
59650;BME280;46162;57.568;25.814;2023-12-04T02:29:44;100573.75;;;-13.96;100.00
59650;BME280;46162;57.568;25.814;2023-12-04T02:32:16;100570.28;;;-13.89;100.00
59650;BME280;46162;57.568;25.814;2023-12-04T02:34:47;100566.81;;;-13.81;100.00
59650;BME280;46162;57.568;25.814;2023-12-04T02:37:16;100561.63;;;-13.77;100.00
59650;BME280;46162;57.568;25.814;2023-12-04T02:39:47;100561.59;;;-13.75;100.00
59650;BME280;46162;57.568;25.814;2023-12-04T02:42:20;100565.06;;;-13.75;100.00
59650;BME280;46162;57.568;25.814;2023-12-04T02:44:48;100560.75;;;-13.76;100.00
59650;BME280;46162;57.568;25.814;2023-12-04T02:47:17;100560.72;;;-13.70;100.00
59650;BME280;46162;57.568;25.814;2023-12-04T02:49:46;100559.84;;;-13.66;100.00
59650;BME280;46162;57.568;25.814;2023-12-04T02:52:15;100563.31;;;-13.73;100.00
59650;BME280;46162;57.568;25.814;2023-12-04T02:54:44;100562.47;;;-13.75;100.00
59650;BME280;46162;57.568;25.814;2023-12-04T02:57:14;100553.81;;;-13.80;100.00
59650;BME280;46162;57.568;25.814;2023-12-04T02:59:42;100553.81;;;-13.80;100.00
59650;BME280;46162;57.568;25.814;2023-12-04T03:02:12;100553.84;;;-13.77;100.00
59650;BME280;46162;57.568;25.814;2023-12-04T03:04:40;100541.72;;;-13.72;100.00
59650;BME280;46162;57.568;25.814;2023-12-04T03:07:09;100551.22;;;-13.75;100.00
59650;BME280;46162;57.568;25.814;2023-12-04T03:09:37;100544.31;;;-13.73;100.00
59650;BME280;46162;57.568;25.814;2023-12-04T03:12:17;100546.84;;;-13.62;100.00
59650;BME280;46162;57.568;25.814;2023-12-04T03:14:46;100552.94;;;-13.59;100.00
59650;BME280;46162;57.568;25.814;2023-12-04T03:17:14;100557.25;;;-13.56;100.00
59650;BME280;46162;57.568;25.814;2023-12-04T03:19:43;100552.91;;;-13.50;100.00
59650;BME280;46162;57.568;25.814;2023-12-04T03:22:12;100560.66;;;-13.44;100.00
59650;BME280;46162;57.568;25.814;2023-12-04T03:24:41;100549.44;;;-13.56;100.00
59650;BME280;46162;57.568;25.814;2023-12-04T03:27:09;100553.81;;;-13.71;100.00
59650;BME280;46162;57.568;25.814;2023-12-04T03:29:39;100563.38;;;-13.87;100.00
59650;BME280;46162;57.568;25.814;2023-12-04T03:32:08;100558.19;;;-13.91;100.00
59650;BME280;46162;57.568;25.814;2023-12-04T03:34:36;100553.88;;;-14.14;100.00
59650;BME280;46162;57.568;25.814;2023-12-04T03:37:05;100554.75;;;-14.25;100.00
59650;BME280;46162;57.568;25.814;2023-12-04T03:39:34;100559.94;;;-14.36;100.00
59650;BME280;46162;57.568;25.814;2023-12-04T03:42:03;100552.13;;;-14.27;100.00
59650;BME280;46162;57.568;25.814;2023-12-04T03:44:32;100551.28;;;-14.29;100.00
59650;BME280;46162;57.568;25.814;2023-12-04T03:47:02;100557.31;;;-14.42;100.00
59650;BME280;46162;57.568;25.814;2023-12-04T03:49:30;100549.53;;;-14.47;100.00
59650;BME280;46162;57.568;25.814;2023-12-04T03:51:59;100551.28;;;-14.51;100.00
59650;BME280;46162;57.568;25.814;2023-12-04T03:54:28;100548.69;;;-14.47;100.00
59650;BME280;46162;57.568;25.814;2023-12-04T03:56:57;100549.56;;;-14.36;100.00
59650;BME280;46162;57.568;25.814;2023-12-04T03:59:26;100542.63;;;-14.11;100.00
59650;BME280;46162;57.568;25.814;2023-12-04T04:01:54;100551.28;;;-13.97;100.00
59650;BME280;46162;57.568;25.814;2023-12-04T04:04:25;100556.44;;;-13.86;100.00
59650;BME280;46162;57.568;25.814;2023-12-04T04:06:54;100559.91;;;-13.96;100.00
59650;BME280;46162;57.568;25.814;2023-12-04T04:09:23;100553.81;;;-13.80;100.00
59650;BME280;46162;57.568;25.814;2023-12-04T04:11:52;100572.00;;;-13.95;100.00
59650;BME280;46162;57.568;25.814;2023-12-04T04:14:20;100573.75;;;-14.03;100.00
59650;BME280;46162;57.568;25.814;2023-12-04T04:16:50;100581.53;;;-13.96;100.00
59650;BME280;46162;57.568;25.814;2023-12-04T04:19:19;100579.81;;;-14.01;100.00
59650;BME280;46162;57.568;25.814;2023-12-04T04:21:49;100582.41;;;-13.89;100.00
59650;BME280;46162;57.568;25.814;2023-12-04T04:24:17;100582.41;;;-13.95;100.00
59650;BME280;46162;57.568;25.814;2023-12-04T04:26:46;100588.44;;;-13.72;100.00
59650;BME280;46162;57.568;25.814;2023-12-04T04:29:15;100583.25;;;-13.93;100.00
59650;BME280;46162;57.568;25.814;2023-12-04T04:31:43;100594.50;;;-14.45;100.00
59650;BME280;46162;57.568;25.814;2023-12-04T04:34:12;100591.00;;;-14.52;100.00
59650;BME280;46162;57.568;25.814;2023-12-04T04:36:42;100591.03;;;-14.68;100.00
59650;BME280;46162;57.568;25.814;2023-12-04T04:39:13;100585.78;;;-14.90;100.00
59650;BME280;46162;57.568;25.814;2023-12-04T04:41:42;100587.50;;;-14.92;100.00
59650;BME280;46162;57.568;25.814;2023-12-04T04:44:10;100584.06;;;-14.86;100.00
59650;BME280;46162;57.568;25.814;2023-12-04T04:46:39;100592.75;;;-14.75;100.00
59650;BME280;46162;57.568;25.814;2023-12-04T04:49:08;100579.78;;;-14.61;100.00
59650;BME280;46162;57.568;25.814;2023-12-04T04:51:36;100591.91;;;-14.33;100.00
59650;BME280;46162;57.568;25.814;2023-12-04T04:54:05;100580.66;;;-14.35;100.00
59650;BME280;46162;57.568;25.814;2023-12-04T04:56:35;100584.13;;;-14.65;100.00
59650;BME280;46162;57.568;25.814;2023-12-04T04:59:04;100583.19;;;-14.87;100.00
59650;BME280;46162;57.568;25.814;2023-12-04T05:01:33;100578.91;;;-14.80;100.00
59650;BME280;46162;57.568;25.814;2023-12-04T05:04:02;100574.59;;;-14.69;100.00
59650;BME280;46162;57.568;25.814;2023-12-04T05:06:31;100565.09;;;-14.70;100.00
59650;BME280;46162;57.568;25.814;2023-12-04T05:09:00;100565.97;;;-14.48;100.00
59650;BME280;46162;57.568;25.814;2023-12-04T05:11:28;100571.16;;;-14.65;100.00
59650;BME280;46162;57.568;25.814;2023-12-04T05:13:59;100572.88;;;-14.67;100.00
59650;BME280;46162;57.568;25.814;2023-12-04T05:16:27;100572.03;;;-14.47;100.00
59650;BME280;46162;57.568;25.814;2023-12-04T05:19:00;100577.19;;;-14.47;100.00
59650;BME280;46162;57.568;25.814;2023-12-04T05:21:28;100569.41;;;-14.72;100.00
59650;BME280;46162;57.568;25.814;2023-12-04T05:23:57;100571.06;;;-15.02;100.00
59650;BME280;46162;57.568;25.814;2023-12-04T05:26:26;100578.84;;;-15.02;100.00
59650;BME280;46162;57.568;25.814;2023-12-04T05:28:55;100573.72;;;-14.88;100.00
59650;BME280;46162;57.568;25.814;2023-12-04T05:31:28;100569.38;;;-14.87;100.00
59650;BME280;46162;57.568;25.814;2023-12-04T05:33:57;100568.50;;;-14.94;100.00
59650;BME280;46162;57.568;25.814;2023-12-04T05:36:27;100574.59;;;-14.69;100.00
59650;BME280;46162;57.568;25.814;2023-12-04T05:38:56;100574.63;;;-14.64;100.00
59650;BME280;46162;57.568;25.814;2023-12-04T05:41:27;100567.69;;;-14.52;100.00
59650;BME280;46162;57.568;25.814;2023-12-04T05:43:56;100576.34;;;-14.65;100.00
59650;BME280;46162;57.568;25.814;2023-12-04T05:46:24;100579.78;;;-14.44;100.00
59650;BME280;46162;57.568;25.814;2023-12-04T05:48:55;100578.91;;;-14.49;100.00
59650;BME280;46162;57.568;25.814;2023-12-04T05:51:23;100585.84;;;-14.42;100.00
59650;BME280;46162;57.568;25.814;2023-12-04T05:53:52;100580.69;;;-14.33;100.00
59650;BME280;46162;57.568;25.814;2023-12-04T05:56:21;100583.25;;;-14.30;100.00
59650;BME280;46162;57.568;25.814;2023-12-04T05:58:49;100580.66;;;-14.22;100.00
59650;BME280;46162;57.568;25.814;2023-12-04T06:01:18;100583.28;;;-14.04;100.00
59650;BME280;46162;57.568;25.814;2023-12-04T06:03:47;100580.69;;;-13.92;100.00
59650;BME280;46162;57.568;25.814;2023-12-04T06:06:18;100578.06;;;-13.81;100.00
59650;BME280;46162;57.568;25.814;2023-12-04T06:08:47;100577.16;;;-13.68;100.00
59650;BME280;46162;57.568;25.814;2023-12-04T06:11:16;100578.88;;;-13.65;100.00
59650;BME280;46162;57.568;25.814;2023-12-04T06:13:44;100578.03;;;-13.59;100.00
59650;BME280;46162;57.568;25.814;2023-12-04T06:16:16;100584.13;;;-13.82;100.00
59650;BME280;46162;57.568;25.814;2023-12-04T06:18:45;100588.47;;;-14.28;100.00
59650;BME280;46162;57.568;25.814;2023-12-04T06:21:14;100589.31;;;-14.48;100.00
59650;BME280;46162;57.568;25.814;2023-12-04T06:23:44;100591.00;;;-14.52;100.00
59650;BME280;46162;57.568;25.814;2023-12-04T06:26:14;100591.91;;;-14.56;100.00
59650;BME280;46162;57.568;25.814;2023-12-04T06:28:45;100590.19;;;-14.66;100.00
59650;BME280;46162;57.568;25.814;2023-12-04T06:31:14;100593.66;;;-14.58;100.00
59650;BME280;46162;57.568;25.814;2023-12-04T06:33:44;100597.09;;;-14.56;100.00
59650;BME280;46162;57.568;25.814;2023-12-04T06:36:14;100597.94;;;-14.49;100.00
59650;BME280;46162;57.568;25.814;2023-12-04T06:38:46;100602.28;;;-14.33;100.00
59650;BME280;46162;57.568;25.814;2023-12-04T06:41:16;100590.19;;;-14.20;100.00
59650;BME280;46162;57.568;25.814;2023-12-04T06:43:46;100595.38;;;-14.03;100.00
59650;BME280;46162;57.568;25.814;2023-12-04T06:46:21;100597.97;;;-13.95;100.00
59650;BME280;46162;57.568;25.814;2023-12-04T06:48:53;100593.66;;;-13.92;100.00
59650;BME280;46162;57.568;25.814;2023-12-04T06:51:23;100597.97;;;-13.89;100.00
59650;BME280;46162;57.568;25.814;2023-12-04T06:53:56;100598.81;;;-13.78;100.00
59650;BME280;46162;57.568;25.814;2023-12-04T06:56:30;100594.47;;;-13.65;100.00
59650;BME280;46162;57.568;25.814;2023-12-04T06:59:01;100588.41;;;-13.56;100.00
59650;BME280;46162;57.568;25.814;2023-12-04T07:01:31;100590.97;;;-13.47;100.00
59650;BME280;46162;57.568;25.814;2023-12-04T07:04:01;100591.78;;;-13.31;100.00
59650;BME280;46162;57.568;25.814;2023-12-04T07:06:37;100591.72;;;-13.21;100.00
59650;BME280;46162;57.568;25.814;2023-12-04T07:09:07;100583.88;;;-13.07;100.00
59650;BME280;46162;57.568;25.814;2023-12-04T07:11:36;100589.03;;;-12.97;100.00
59650;BME280;46162;57.568;25.814;2023-12-04T07:14:05;100581.16;;;-12.84;100.00
59650;BME280;46162;57.568;25.814;2023-12-04T07:16:41;100575.00;;;-12.66;100.00
59650;BME280;46162;57.568;25.814;2023-12-04T07:19:10;100578.41;;;-12.59;100.00
59650;BME280;46162;57.568;25.814;2023-12-04T07:21:40;100592.13;;;-12.31;100.00
59650;BME280;46162;57.568;25.814;2023-12-04T07:24:10;100586.75;;;-12.13;100.00
59650;BME280;46162;57.568;25.814;2023-12-04T07:26:42;100585.81;;;-12.02;100.00
59650;BME280;46162;57.568;25.814;2023-12-04T07:29:10;100592.75;;;-12.04;100.00
59650;BME280;46162;57.568;25.814;2023-12-04T07:31:41;100583.38;;;-12.21;100.00
59650;BME280;46162;57.568;25.814;2023-12-04T07:34:13;100592.13;;;-12.31;100.00
59650;BME280;46162;57.568;25.814;2023-12-04T07:36:43;100591.31;;;-12.41;100.00
59650;BME280;46162;57.568;25.814;2023-12-04T07:39:13;100593.91;;;-12.44;100.00
59650;BME280;46162;57.568;25.814;2023-12-04T07:41:42;100587.03;;;-12.49;100.00
59650;BME280;46162;57.568;25.814;2023-12-04T07:44:13;100585.28;;;-12.46;100.00
59650;BME280;46162;57.568;25.814;2023-12-04T07:46:43;100589.59;;;-12.46;100.00
59650;BME280;46162;57.568;25.814;2023-12-04T07:49:12;100591.34;;;-12.47;100.00
59650;BME280;46162;57.568;25.814;2023-12-04T07:51:41;100594.81;;;-12.45;100.00
59650;BME280;46162;57.568;25.814;2023-12-04T07:54:10;100588.72;;;-12.41;100.00
59650;BME280;46162;57.568;25.814;2023-12-04T07:56:40;100586.75;;;-12.11;100.00
59650;BME280;46162;57.568;25.814;2023-12-04T07:59:11;100591.06;;;-12.04;100.00
59650;BME280;46162;57.568;25.814;2023-12-04T08:01:40;100592.72;;;-12.00;100.00
59650;BME280;46162;57.568;25.814;2023-12-04T08:04:09;100597.75;;;-11.84;100.00
59650;BME280;46162;57.568;25.814;2023-12-04T08:06:38;100595.94;;;-11.73;100.00
59650;BME280;46162;57.568;25.814;2023-12-04T08:09:11;100594.19;;;-11.73;100.00
59650;BME280;46162;57.568;25.814;2023-12-04T08:11:41;100586.25;;;-11.60;100.00
59650;BME280;46162;57.568;25.814;2023-12-04T08:14:10;100596.47;;;-11.39;100.00
59650;BME280;46162;57.568;25.814;2023-12-04T08:16:42;100601.59;;;-11.33;100.00
59650;BME280;46162;57.568;25.814;2023-12-04T08:19:11;100594.69;;;-11.34;100.00
59650;BME280;46162;57.568;25.814;2023-12-04T08:21:40;100607.56;;;-11.23;100.00
59650;BME280;46162;57.568;25.814;2023-12-04T08:24:09;100603.09;;;-11.10;100.00
59650;BME280;46162;57.568;25.814;2023-12-04T08:26:42;100605.69;;;-11.09;100.00
59650;BME280;46162;57.568;25.814;2023-12-04T08:29:11;100605.63;;;-11.02;100.00
59650;BME280;46162;57.568;25.814;2023-12-04T08:31:40;100605.22;;;-10.70;100.00
59650;BME280;46162;57.568;25.814;2023-12-04T08:34:08;100604.50;;;-10.83;100.00
59650;BME280;46162;57.568;25.814;2023-12-04T08:36:37;100614.16;;;-10.91;100.00
59650;BME280;46162;57.568;25.814;2023-12-04T08:39:12;100619.38;;;-10.91;100.00
59650;BME280;46162;57.568;25.814;2023-12-04T08:41:45;100612.22;;;-10.74;100.00
59650;BME280;46162;57.568;25.814;2023-12-04T08:44:28;100616.47;;;-10.68;100.00
59650;BME280;46162;57.568;25.814;2023-12-04T08:47:02;100610.47;;;-10.73;100.00
59650;BME280;46162;57.568;25.814;2023-12-04T08:49:31;100617.41;;;-10.72;100.00
59650;BME280;46162;57.568;25.814;2023-12-04T08:52:13;100618.72;;;-10.41;100.00
59650;BME280;46162;57.568;25.814;2023-12-04T08:54:42;100617.19;;;-10.55;100.00
59650;BME280;46162;57.568;25.814;2023-12-04T08:57:18;100610.00;;;-10.40;100.00
59650;BME280;46162;57.568;25.814;2023-12-04T08:59:47;100614.44;;;-10.45;100.00
59650;BME280;46162;57.568;25.814;2023-12-04T09:02:15;100617.78;;;-10.36;100.00
59650;BME280;46162;57.568;25.814;2023-12-04T09:04:44;100607.06;;;-10.21;100.00
59650;BME280;46162;57.568;25.814;2023-12-04T09:07:14;100620.13;;;-10.20;100.00
59650;BME280;46162;57.568;25.814;2023-12-04T09:09:52;100618.16;;;-10.05;100.00
59650;BME280;46162;57.568;25.814;2023-12-04T09:12:22;100618.06;;;-9.99;100.00
59650;BME280;46162;57.568;25.814;2023-12-04T09:14:54;100612.63;;;-9.87;100.00
59650;BME280;46162;57.568;25.814;2023-12-04T09:17:28;100617.84;;;-9.85;100.00
59650;BME280;46162;57.568;25.814;2023-12-04T09:20:06;100619.53;;;-9.83;100.00
59650;BME280;46162;57.568;25.814;2023-12-04T09:22:36;100609.03;;;-9.78;100.00
59650;BME280;46162;57.568;25.814;2023-12-04T09:25:18;100605.47;;;-9.74;100.00
59650;BME280;46162;57.568;25.814;2023-12-04T09:27:49;100619.41;;;-9.74;100.00
59650;BME280;46162;57.568;25.814;2023-12-04T09:30:20;100613.91;;;-9.58;100.00
59650;BME280;46162;57.568;25.814;2023-12-04T09:32:52;100618.56;;;-9.77;100.00
59650;BME280;46162;57.568;25.814;2023-12-04T09:35:24;100619.25;;;-9.66;100.00
59650;BME280;46162;57.568;25.814;2023-12-04T09:38:03;100622.00;;;-9.74;100.00
59650;BME280;46162;57.568;25.814;2023-12-04T09:40:32;100624.81;;;-9.86;100.00
59650;BME280;46162;57.568;25.814;2023-12-04T09:43:06;100629.72;;;-9.66;100.00
59650;BME280;46162;57.568;25.814;2023-12-04T09:45:35;100624.88;;;-9.89;100.00
59650;BME280;46162;57.568;25.814;2023-12-04T09:48:09;100600.53;;;-9.91;100.00
59650;BME280;46162;57.568;25.814;2023-12-04T09:50:39;100611.44;;;-9.67;100.00
59650;BME280;46162;57.568;25.814;2023-12-04T09:53:13;100614.75;;;-9.56;100.00
59650;BME280;46162;57.568;25.814;2023-12-04T09:55:47;100606.84;;;-9.53;100.00
59650;BME280;46162;57.568;25.814;2023-12-04T09:58:24;100615.38;;;-9.42;100.00
59650;BME280;46162;57.568;25.814;2023-12-04T10:00:59;100603.28;;;-9.49;100.00
59650;BME280;46162;57.568;25.814;2023-12-04T10:03:30;100609.00;;;-9.28;100.00
59650;BME280;46162;57.568;25.814;2023-12-04T10:06:03;100613.34;;;-9.27;100.00
59650;BME280;46162;57.568;25.814;2023-12-04T10:08:33;100615.63;;;-9.09;100.00
59650;BME280;46162;57.568;25.814;2023-12-04T10:11:04;100620.22;;;-9.23;100.00
59650;BME280;46162;57.568;25.814;2023-12-04T10:13:37;100615.94;;;-9.27;100.00
59650;BME280;46162;57.568;25.814;2023-12-04T10:16:35;100623.69;;;-9.21;100.00
59650;BME280;46162;57.568;25.814;2023-12-04T10:19:19;100615.88;;;-9.23;100.00
59650;BME280;46162;57.568;25.814;2023-12-04T10:21:50;100621.00;;;-9.17;100.00
59650;BME280;46162;57.568;25.814;2023-12-04T10:24:33;100623.38;;;-9.06;100.00
59650;BME280;46162;57.568;25.814;2023-12-04T10:27:07;100623.47;;;-9.09;100.00
59650;BME280;46162;57.568;25.814;2023-12-04T10:29:48;100618.97;;;-9.02;100.00
59650;BME280;46162;57.568;25.814;2023-12-04T10:32:25;100618.91;;;-8.99;100.00
59650;BME280;46162;57.568;25.814;2023-12-04T10:34:57;100630.00;;;-8.88;100.00
59650;BME280;46162;57.568;25.814;2023-12-04T10:37:29;100629.16;;;-8.90;100.00
59650;BME280;46162;57.568;25.814;2023-12-04T10:40:01;100627.22;;;-8.80;100.00
59650;BME280;46162;57.568;25.814;2023-12-04T10:42:30;100622.16;;;-8.88;100.00
59650;BME280;46162;57.568;25.814;2023-12-04T10:45:04;100628.75;;;-8.69;100.00
59650;BME280;46162;57.568;25.814;2023-12-04T10:47:34;100626.69;;;-8.53;100.00
59650;BME280;46162;57.568;25.814;2023-12-04T10:50:06;100632.16;;;-8.65;100.00
59650;BME280;46162;57.568;25.814;2023-12-04T10:52:36;100638.16;;;-8.60;100.00
59650;BME280;46162;57.568;25.814;2023-12-04T10:55:08;100637.63;;;-8.35;100.00
59650;BME280;46162;57.568;25.814;2023-12-04T10:57:40;100640.84;;;-8.24;100.00
59650;BME280;46162;57.568;25.814;2023-12-04T11:00:17;100645.38;;;-8.32;100.00
59650;BME280;46162;57.568;25.814;2023-12-04T11:02:57;100640.53;;;-8.49;100.00
59650;BME280;46162;57.568;25.814;2023-12-04T11:05:32;100636.06;;;-8.42;100.00
59650;BME280;46162;57.568;25.814;2023-12-04T11:08:06;100627.56;;;-8.54;100.00
59650;BME280;46162;57.568;25.814;2023-12-04T11:10:52;100635.50;;;-8.58;100.00
59650;BME280;46162;57.568;25.814;2023-12-04T11:13:30;100635.22;;;-8.45;100.00
59650;BME280;46162;57.568;25.814;2023-12-04T11:16:09;100627.88;;;-8.69;100.00
59650;BME280;46162;57.568;25.814;2023-12-04T11:18:48;100626.72;;;-8.56;100.00
59650;BME280;46162;57.568;25.814;2023-12-04T11:21:24;100640.63;;;-8.54;100.00
59650;BME280;46162;57.568;25.814;2023-12-04T11:23:54;100635.97;;;-8.39;100.00
59650;BME280;46162;57.568;25.814;2023-12-04T11:26:25;100637.63;;;-8.35;100.00
59650;BME280;46162;57.568;25.814;2023-12-04T11:28:58;100636.78;;;-8.39;100.00
59650;BME280;46162;57.568;25.814;2023-12-04T11:31:29;100629.97;;;-8.43;100.00
59650;BME280;46162;57.568;25.814;2023-12-04T11:34:01;100641.66;;;-8.61;100.00
59650;BME280;46162;57.568;25.814;2023-12-04T11:36:36;100629.66;;;-8.70;100.00
59650;BME280;46162;57.568;25.814;2023-12-04T11:39:08;100633.88;;;-8.62;100.00
59650;BME280;46162;57.568;25.814;2023-12-04T11:41:40;100630.69;;;-8.78;100.00
59650;BME280;46162;57.568;25.814;2023-12-04T11:44:12;100630.72;;;-8.80;100.00
59650;BME280;46162;57.568;25.814;2023-12-04T11:47:09;100637.25;;;-8.59;100.00
59650;BME280;46162;57.568;25.814;2023-12-04T11:49:45;100627.75;;;-8.63;100.00
59650;BME280;46162;57.568;25.814;2023-12-04T11:52:32;100637.66;;;-8.38;100.00
59650;BME280;46162;57.568;25.814;2023-12-04T11:55:08;100634.94;;;-8.34;100.00
59650;BME280;46162;57.568;25.814;2023-12-04T11:57:38;100641.75;;;-8.27;100.00
59650;BME280;46162;57.568;25.814;2023-12-04T12:00:12;100631.94;;;-8.17;100.00
59650;BME280;46162;57.568;25.814;2023-12-04T12:03:04;100638.38;;;-8.32;100.00
59650;BME280;46162;57.568;25.814;2023-12-04T12:05:53;100638.69;;;-8.44;100.00
59650;BME280;46162;57.568;25.814;2023-12-04T12:08:32;100632.97;;;-8.63;100.00
59650;BME280;46162;57.568;25.814;2023-12-04T12:11:10;100629.06;;;-8.42;100.00
59650;BME280;46162;57.568;25.814;2023-12-04T12:14:10;100633.72;;;-8.56;100.00
59650;BME280;46162;57.568;25.814;2023-12-04T12:16:42;100635.59;;;-8.63;100.00
59650;BME280;46162;57.568;25.814;2023-12-04T12:19:16;100637.41;;;-8.65;100.00
59650;BME280;46162;57.568;25.814;2023-12-04T12:21:52;100639.03;;;-8.59;100.00
59650;BME280;46162;57.568;25.814;2023-12-04T12:24:28;100635.38;;;-8.52;100.00
59650;BME280;46162;57.568;25.814;2023-12-04T12:26:57;100628.94;;;-8.39;100.00
59650;BME280;46162;57.568;25.814;2023-12-04T12:29:27;100637.81;;;-8.43;100.00
59650;BME280;46162;57.568;25.814;2023-12-04T12:31:56;100645.00;;;-8.53;100.00
59650;BME280;46162;57.568;25.814;2023-12-04T12:34:25;100635.47;;;-8.57;100.00
59650;BME280;46162;57.568;25.814;2023-12-04T12:36:55;100642.31;;;-8.50;100.00
59650;BME280;46162;57.568;25.814;2023-12-04T12:39:26;100639.72;;;-8.51;100.00
59650;BME280;46162;57.568;25.814;2023-12-04T12:41:59;100636.16;;;-8.49;100.00